createdAt,value
2023-04-21T00:00:10.775Z,5.32
2023-04-21T00:01:10.779Z,5.18
2023-04-21T00:02:10.813Z,5.03
2023-04-21T00:03:10.934Z,4.82
2023-04-21T00:04:10.946Z,4.71
2023-04-21T00:05:11.080Z,4.67
2023-04-21T00:06:10.874Z,4.69
2023-04-21T00:07:10.921Z,4.78
2023-04-21T00:08:10.933Z,4.94
2023-04-21T00:09:10.992Z,4.81
2023-04-21T00:10:10.986Z,4.54
2023-04-21T00:11:11.008Z,4.65
2023-04-21T00:12:11.026Z,4.76
2023-04-21T00:13:11.098Z,4.85
2023-04-21T00:14:11.112Z,4.75
2023-04-21T00:15:11.101Z,4.40
2023-04-21T00:16:11.149Z,4.26
2023-04-21T00:17:11.166Z,4.29
2023-04-21T00:18:11.223Z,4.17
2023-04-21T00:19:11.216Z,4.32
2023-04-21T00:20:11.268Z,4.25
2023-04-21T00:21:11.268Z,4.25
2023-04-21T00:22:11.284Z,4.38
2023-04-21T00:23:11.282Z,4.28
2023-04-21T00:24:11.343Z,4.31
2023-04-21T00:25:11.342Z,4.27
2023-04-21T00:26:11.345Z,4.25
2023-04-21T00:27:11.429Z,4.32
2023-04-21T00:28:11.417Z,4.54
2023-04-21T00:29:11.425Z,4.25
2023-04-21T00:30:11.495Z,4.27
2023-04-21T00:31:11.550Z,4.31
2023-04-21T00:32:11.514Z,4.37
2023-04-21T00:33:11.528Z,4.52
2023-04-21T00:34:11.549Z,4.61
2023-04-21T00:35:11.563Z,4.32
2023-04-21T00:36:11.621Z,4.06
2023-04-21T00:37:11.606Z,3.93
2023-04-21T00:38:11.628Z,3.96
2023-04-21T00:39:11.615Z,4.21
2023-04-21T00:40:11.655Z,4.52
2023-04-21T00:41:11.688Z,4.37
2023-04-21T00:42:12.849Z,4.38
2023-04-21T00:43:11.755Z,4.16
2023-04-21T00:44:11.743Z,4.12
2023-04-21T00:45:11.823Z,4.21
2023-04-21T00:46:11.878Z,4.22
2023-04-21T00:47:11.950Z,4.27
2023-04-21T00:48:11.914Z,4.32
2023-04-21T00:49:11.931Z,4.33
2023-04-21T00:50:11.965Z,4.27
2023-04-21T00:51:11.996Z,4.37
2023-04-21T00:52:12.015Z,4.55
2023-04-21T00:53:12.039Z,4.40
2023-04-21T00:54:12.087Z,4.34
2023-04-21T00:55:12.100Z,4.32
2023-04-21T00:56:12.133Z,4.36
2023-04-21T00:57:12.170Z,4.59
2023-04-21T00:58:12.178Z,4.58
2023-04-21T00:59:12.213Z,4.16
2023-04-21T01:00:12.229Z,4.09
2023-04-21T01:01:12.285Z,4.07
2023-04-21T01:02:12.368Z,3.98
2023-04-21T01:03:12.552Z,4.07
2023-04-21T01:04:12.486Z,4.24
2023-04-21T01:05:12.374Z,4.31
2023-04-21T01:06:12.394Z,4.38
2023-04-21T01:07:12.463Z,4.41
2023-04-21T01:08:12.414Z,4.40
2023-04-21T01:09:12.442Z,4.31
2023-04-21T01:10:12.445Z,4.16
2023-04-21T01:11:12.440Z,4.23
2023-04-21T01:12:12.479Z,4.20
2023-04-21T01:13:12.492Z,4.08
2023-04-21T01:14:12.521Z,4.12
2023-04-21T01:15:12.559Z,4.12
2023-04-21T01:16:12.596Z,4.24
2023-04-21T01:17:12.629Z,4.24
2023-04-21T01:18:12.667Z,4.15
2023-04-21T01:19:12.655Z,4.08
2023-04-21T01:20:12.649Z,4.07
2023-04-21T01:21:12.723Z,4.04
2023-04-21T01:22:12.754Z,4.06
2023-04-21T01:23:12.748Z,4.12
2023-04-21T01:24:12.758Z,4.14
2023-04-21T01:25:12.818Z,4.07
2023-04-21T01:26:12.793Z,3.93
2023-04-21T01:27:12.824Z,3.39
2023-04-21T01:28:12.840Z,3.32
2023-04-21T01:29:12.918Z,3.44
2023-04-21T01:30:12.910Z,3.49
2023-04-21T01:31:12.933Z,3.35
2023-04-21T01:32:12.972Z,3.36
2023-04-21T01:33:13.026Z,3.47
2023-04-21T01:34:13.020Z,3.58
2023-04-21T01:35:13.015Z,3.55
2023-04-21T01:36:13.079Z,3.57
2023-04-21T01:37:13.079Z,3.51
2023-04-21T01:38:13.073Z,3.20
2023-04-21T01:39:13.088Z,3.18
2023-04-21T01:40:13.109Z,3.33
2023-04-21T01:41:13.124Z,3.42
2023-04-21T01:42:13.190Z,3.52
2023-04-21T01:43:13.210Z,3.57
2023-04-21T01:44:13.218Z,3.54
2023-04-21T01:45:13.280Z,3.23
2023-04-21T01:46:13.350Z,2.91
2023-04-21T01:47:13.311Z,2.93
2023-04-21T01:48:13.389Z,2.99
2023-04-21T01:49:13.345Z,3.09
2023-04-21T01:50:13.371Z,3.34
2023-04-21T01:51:13.397Z,3.56
2023-04-21T01:52:13.432Z,3.67
2023-04-21T01:53:13.452Z,3.72
2023-04-21T01:54:13.453Z,3.74
2023-04-21T01:55:13.476Z,3.82
2023-04-21T01:56:14.444Z,4.08
2023-04-21T01:57:13.523Z,4.14
2023-04-21T01:58:13.567Z,4.18
2023-04-21T01:59:13.584Z,4.40
2023-04-21T02:00:13.577Z,4.46
2023-04-21T02:01:13.627Z,4.46
2023-04-21T02:02:13.707Z,4.61
2023-04-21T02:03:13.783Z,4.77
2023-04-21T02:04:13.889Z,4.80
2023-04-21T02:05:13.697Z,4.95
2023-04-21T02:06:13.730Z,4.95
2023-04-21T02:07:13.722Z,4.74
2023-04-21T02:08:13.777Z,4.88
2023-04-21T02:09:13.769Z,4.68
2023-04-21T02:10:13.795Z,4.71
2023-04-21T02:11:13.832Z,4.66
2023-04-21T02:12:13.839Z,4.56
2023-04-21T02:13:13.834Z,4.51
2023-04-21T02:14:13.869Z,4.40
2023-04-21T02:15:13.874Z,4.34
2023-04-21T02:16:14.489Z,4.35
2023-04-21T02:17:13.896Z,4.41
2023-04-21T02:18:13.920Z,4.56
2023-04-21T02:19:13.902Z,4.55
2023-04-21T02:20:13.916Z,4.53
2023-04-21T02:21:13.912Z,4.44
2023-04-21T02:22:13.934Z,4.26
2023-04-21T02:23:13.951Z,4.26
2023-04-21T02:24:13.957Z,4.17
2023-04-21T02:25:13.984Z,4.19
2023-04-21T02:26:13.923Z,4.21
2023-04-21T02:27:13.923Z,4.24
2023-04-21T02:28:13.954Z,4.20
2023-04-21T02:29:13.947Z,4.37
2023-04-21T02:30:13.944Z,4.34
2023-04-21T02:31:13.988Z,4.31
2023-04-21T02:32:22.280Z,4.24
2023-04-21T02:33:14.897Z,4.25
2023-04-21T02:34:13.844Z,4.25
2023-04-21T02:35:13.803Z,4.25
2023-04-21T02:36:13.777Z,4.27
2023-04-21T02:37:13.712Z,4.28
2023-04-21T02:38:13.739Z,4.27
2023-04-21T02:39:13.637Z,4.29
2023-04-21T02:40:13.628Z,4.25
2023-04-21T02:41:13.577Z,4.27
2023-04-21T02:42:13.577Z,4.31
2023-04-21T02:43:13.500Z,4.38
2023-04-21T02:44:13.473Z,4.36
2023-04-21T02:45:13.497Z,4.39
2023-04-21T02:46:13.413Z,4.28
2023-04-21T02:47:13.327Z,4.38
2023-04-21T02:48:13.286Z,4.35
2023-04-21T02:49:13.238Z,4.45
2023-04-21T02:50:13.235Z,4.38
2023-04-21T02:51:13.162Z,4.45
2023-04-21T02:52:13.136Z,4.46
2023-04-21T02:53:13.137Z,4.50
2023-04-21T02:54:13.118Z,4.52
2023-04-21T02:55:13.133Z,4.70
2023-04-21T02:56:13.078Z,4.56
2023-04-21T02:57:13.089Z,4.55
2023-04-21T02:58:13.114Z,4.79
2023-04-21T02:59:13.058Z,5.17
2023-04-21T03:00:13.025Z,5.37
2023-04-21T03:01:13.050Z,5.13
2023-04-21T03:02:13.028Z,4.83
2023-04-21T03:03:13.119Z,5.02
2023-04-21T03:04:13.169Z,5.00
2023-04-21T03:05:13.026Z,5.22
2023-04-21T03:06:13.008Z,5.04
2023-04-21T03:07:12.996Z,4.91
2023-04-21T03:08:13.002Z,4.85
2023-04-21T03:09:12.967Z,4.70
2023-04-21T03:10:12.946Z,4.58
2023-04-21T03:11:12.960Z,4.50
2023-04-21T03:12:12.965Z,4.53
2023-04-21T03:13:12.917Z,4.37
2023-04-21T03:14:12.929Z,4.42
2023-04-21T03:15:12.900Z,4.41
2023-04-21T03:16:12.901Z,4.38
2023-04-21T03:17:12.883Z,4.39
2023-04-21T03:18:13.073Z,4.41
2023-04-21T03:19:12.831Z,4.41
2023-04-21T03:20:12.878Z,4.28
2023-04-21T03:21:12.795Z,4.29
2023-04-21T03:22:12.816Z,4.33
2023-04-21T03:23:12.775Z,4.42
2023-04-21T03:24:12.783Z,4.38
2023-04-21T03:25:12.745Z,4.39
2023-04-21T03:26:12.734Z,4.48
2023-04-21T03:27:12.696Z,4.58
2023-04-21T03:28:12.673Z,4.56
2023-04-21T03:29:12.650Z,4.48
2023-04-21T03:30:12.651Z,4.68
2023-04-21T03:31:12.647Z,4.61
2023-04-21T03:32:12.712Z,4.78
2023-04-21T03:33:12.599Z,4.70
2023-04-21T03:34:12.587Z,4.72
2023-04-21T03:35:12.542Z,4.85
2023-04-21T03:36:12.521Z,4.74
2023-04-21T03:37:12.511Z,4.87
2023-04-21T03:38:12.523Z,4.63
2023-04-21T03:39:19.855Z,4.76
2023-04-21T03:40:13.413Z,4.76
2023-04-21T03:41:12.399Z,4.78
2023-04-21T03:42:12.347Z,4.92
2023-04-21T03:43:12.349Z,4.98
2023-04-21T03:44:12.304Z,5.21
2023-04-21T03:45:12.269Z,5.32
2023-04-21T03:46:12.232Z,5.47
2023-04-21T03:47:12.192Z,5.45
2023-04-21T03:48:12.191Z,5.40
2023-04-21T03:49:12.118Z,5.31
2023-04-21T03:50:12.064Z,5.04
2023-04-21T03:51:11.997Z,5.07
2023-04-21T03:52:11.993Z,5.16
2023-04-21T03:53:11.974Z,4.98
2023-04-21T03:54:11.901Z,4.89
2023-04-21T03:55:11.892Z,4.81
2023-04-21T03:56:11.838Z,4.92
2023-04-21T03:57:11.791Z,4.87
2023-04-21T03:58:11.753Z,4.82
2023-04-21T03:59:11.743Z,4.79
2023-04-21T04:00:11.693Z,4.94
2023-04-21T04:01:11.676Z,4.72
2023-04-21T04:02:11.691Z,4.81
2023-04-21T04:03:11.755Z,4.86
2023-04-21T04:04:11.687Z,4.81
2023-04-21T04:05:11.521Z,4.79
2023-04-21T04:06:11.467Z,4.79
2023-04-21T04:07:11.464Z,4.87
2023-04-21T04:08:11.475Z,4.84
2023-04-21T04:09:11.472Z,4.81
2023-04-21T04:10:11.435Z,4.89
2023-04-21T04:11:11.409Z,4.73
2023-04-21T04:12:11.818Z,4.73
2023-04-21T04:13:11.404Z,4.63
2023-04-21T04:14:11.385Z,4.77
2023-04-21T04:15:11.353Z,4.75
2023-04-21T04:16:11.323Z,4.75
2023-04-21T04:17:11.319Z,4.75
2023-04-21T04:18:11.291Z,4.69
2023-04-21T04:19:11.256Z,4.60
2023-04-21T04:20:11.231Z,4.68
2023-04-21T04:21:11.217Z,4.61
2023-04-21T04:22:11.194Z,4.59
2023-04-21T04:23:11.189Z,4.62
2023-04-21T04:24:11.161Z,4.60
2023-04-21T04:25:11.148Z,4.65
2023-04-21T04:26:11.092Z,4.62
2023-04-21T04:27:11.110Z,4.62
2023-04-21T04:28:11.102Z,4.72
2023-04-21T04:29:11.063Z,4.77
2023-04-21T04:30:11.089Z,4.77
2023-04-21T04:31:11.073Z,4.67
2023-04-21T04:32:11.321Z,4.68
2023-04-21T04:33:11.034Z,4.69
2023-04-21T04:34:11.003Z,4.65
2023-04-21T04:35:10.968Z,4.70
2023-04-21T04:36:10.941Z,4.78
2023-04-21T04:37:10.946Z,4.80
2023-04-21T04:38:10.898Z,4.76
2023-04-21T04:39:10.864Z,4.68
2023-04-21T04:40:10.858Z,4.79
2023-04-21T04:41:10.833Z,4.73
2023-04-21T04:42:10.832Z,4.78
2023-04-21T04:43:10.819Z,4.72
2023-04-21T04:44:10.794Z,4.87
2023-04-21T04:45:10.786Z,4.87
2023-04-21T04:46:10.781Z,4.96
2023-04-21T04:47:10.710Z,5.07
2023-04-21T04:48:10.738Z,5.33
2023-04-21T04:49:10.709Z,5.36
2023-04-21T04:50:10.666Z,5.27
2023-04-21T04:51:10.623Z,5.25
2023-04-21T04:52:10.647Z,5.40
2023-04-21T04:53:10.598Z,5.39
2023-04-21T04:54:10.620Z,5.49
2023-04-21T04:55:10.577Z,5.49
2023-04-21T04:56:10.525Z,5.54
2023-04-21T04:57:10.519Z,5.67
2023-04-21T04:58:10.479Z,5.83
2023-04-21T04:59:10.496Z,6.01
2023-04-21T05:00:10.485Z,6.10
2023-04-21T05:01:17.676Z,6.08
2023-04-21T05:02:10.577Z,6.10
2023-04-21T05:03:10.465Z,6.19
2023-04-21T05:04:10.467Z,6.24
2023-04-21T05:05:10.387Z,6.42
2023-04-21T05:06:10.300Z,6.52
2023-04-21T05:07:10.279Z,6.64
2023-04-21T05:08:10.233Z,6.78
2023-04-21T05:09:10.247Z,6.92
2023-04-21T05:10:10.198Z,6.94
2023-04-21T05:11:10.138Z,6.73
2023-04-21T05:12:10.112Z,6.76
2023-04-21T05:13:10.115Z,6.71
2023-04-21T05:14:10.047Z,6.72
2023-04-21T05:15:10.046Z,6.58
2023-04-21T05:16:10.088Z,6.71
2023-04-21T05:17:09.930Z,6.77
2023-04-21T05:18:09.935Z,6.91
2023-04-21T05:19:09.903Z,8.05
2023-04-21T05:20:09.858Z,10.74
2023-04-21T05:21:09.795Z,10.76
2023-04-21T05:22:09.805Z,10.11
2023-04-21T05:23:09.782Z,9.54
2023-04-21T05:24:09.708Z,9.82
2023-04-21T05:25:09.685Z,10.10
2023-04-21T05:26:09.643Z,10.57
2023-04-21T05:27:09.667Z,11.37
2023-04-21T05:28:09.550Z,11.72
2023-04-21T05:29:09.548Z,11.32
2023-04-21T05:30:09.486Z,11.06
2023-04-21T05:31:09.471Z,11.85
2023-04-21T05:32:09.495Z,12.57
2023-04-21T05:33:09.446Z,12.62
2023-04-21T05:34:09.512Z,12.53
2023-04-21T05:35:09.377Z,12.47
2023-04-21T05:36:09.298Z,12.54
2023-04-21T05:37:09.297Z,12.53
2023-04-21T05:38:09.296Z,12.98
2023-04-21T05:39:09.216Z,12.40
2023-04-21T05:40:09.187Z,12.06
2023-04-21T05:41:09.137Z,12.07
2023-04-21T05:42:09.083Z,12.37
2023-04-21T05:43:09.111Z,13.72
2023-04-21T05:44:09.033Z,13.95
2023-04-21T05:45:09.013Z,14.63
2023-04-21T05:46:15.985Z,14.43
2023-04-21T05:47:08.954Z,14.49
2023-04-21T05:48:09.858Z,14.73
2023-04-21T05:49:08.867Z,15.16
2023-04-21T05:50:08.842Z,15.66
2023-04-21T05:51:08.840Z,16.63
2023-04-21T05:52:08.761Z,17.00
2023-04-21T05:53:08.744Z,16.85
2023-04-21T05:54:08.698Z,17.24
2023-04-21T05:55:08.721Z,16.94
2023-04-21T05:56:08.605Z,17.29
2023-04-21T05:57:08.745Z,17.72
2023-04-21T05:58:08.598Z,17.71
2023-04-21T05:59:08.601Z,17.48
2023-04-21T06:00:08.601Z,17.49
2023-04-21T06:01:08.545Z,17.41
2023-04-21T06:02:08.584Z,17.10
2023-04-21T06:03:08.557Z,17.23
2023-04-21T06:04:08.709Z,16.71
2023-04-21T06:05:08.798Z,16.60
2023-04-21T06:06:08.471Z,16.88
2023-04-21T06:07:08.505Z,16.88
2023-04-21T06:08:08.441Z,16.56
2023-04-21T06:09:08.412Z,16.63
2023-04-21T06:10:08.430Z,16.40
2023-04-21T06:11:08.418Z,16.10
2023-04-21T06:12:08.413Z,15.89
2023-04-21T06:13:08.372Z,15.67
2023-04-21T06:14:08.373Z,15.15
2023-04-21T06:15:08.353Z,14.85
2023-04-21T06:16:08.382Z,15.02
2023-04-21T06:17:08.329Z,14.75
2023-04-21T06:18:08.365Z,14.16
2023-04-21T06:19:08.263Z,14.11
2023-04-21T06:20:08.289Z,13.74
2023-04-21T06:21:08.235Z,13.51
2023-04-21T06:22:08.237Z,13.27
2023-04-21T06:23:08.175Z,13.09
2023-04-21T06:24:08.188Z,12.75
2023-04-21T06:25:08.166Z,12.68
2023-04-21T06:26:08.119Z,12.53
2023-04-21T06:27:08.133Z,11.99
2023-04-21T06:28:08.076Z,11.97
2023-04-21T06:29:08.137Z,11.90
2023-04-21T06:30:08.045Z,11.65
2023-04-21T06:31:09.151Z,11.46
2023-04-21T06:32:08.071Z,11.64
2023-04-21T06:33:08.031Z,11.39
2023-04-21T06:34:07.978Z,11.00
2023-04-21T06:35:08.009Z,10.95
2023-04-21T06:36:07.934Z,10.96
2023-04-21T06:37:07.899Z,10.56
2023-04-21T06:38:07.884Z,10.63
2023-04-21T06:39:07.874Z,10.34
2023-04-21T06:40:07.911Z,10.38
2023-04-21T06:41:07.858Z,9.96
2023-04-21T06:42:07.831Z,10.23
2023-04-21T06:43:07.815Z,9.74
2023-04-21T06:44:07.768Z,9.74
2023-04-21T06:45:07.778Z,9.63
2023-04-21T06:46:07.752Z,9.47
2023-04-21T06:47:07.784Z,9.31
2023-04-21T06:48:07.745Z,9.34
2023-04-21T06:49:07.725Z,9.39
2023-04-21T06:50:07.718Z,9.28
2023-04-21T06:51:07.648Z,9.14
2023-04-21T06:52:07.657Z,9.01
2023-04-21T06:53:07.625Z,9.17
2023-04-21T06:54:07.587Z,8.85
2023-04-21T06:55:07.622Z,9.09
2023-04-21T06:56:07.590Z,8.86
2023-04-21T06:57:07.585Z,8.42
2023-04-21T06:58:07.589Z,7.86
2023-04-21T06:59:07.550Z,7.88
2023-04-21T07:00:07.502Z,7.89
2023-04-21T07:01:07.757Z,7.83
2023-04-21T07:02:07.452Z,7.93
2023-04-21T07:03:07.587Z,7.98
2023-04-21T07:04:07.541Z,8.00
2023-04-21T07:05:07.509Z,8.03
2023-04-21T07:06:07.464Z,8.05
2023-04-21T07:07:07.476Z,8.01
2023-04-21T07:08:07.408Z,8.13
2023-04-21T07:09:07.398Z,8.23
2023-04-21T07:10:07.645Z,8.13
2023-04-21T07:11:07.427Z,8.09
2023-04-21T07:12:07.392Z,7.24
2023-04-21T07:13:09.521Z,6.83
2023-04-21T07:14:07.562Z,6.53
2023-04-21T07:15:07.630Z,6.34
2023-04-21T07:16:07.628Z,6.44
2023-04-21T07:17:07.660Z,6.62
2023-04-21T07:18:07.601Z,6.72
2023-04-21T07:19:07.536Z,6.89
2023-04-21T07:20:07.549Z,6.63
2023-04-21T07:21:07.505Z,6.42
2023-04-21T07:22:07.536Z,5.99
2023-04-21T07:23:07.489Z,5.41
2023-04-21T07:24:07.517Z,5.20
2023-04-21T07:25:07.526Z,5.14
2023-04-21T07:26:07.494Z,5.25
2023-04-21T07:27:07.510Z,5.45
2023-04-21T07:28:07.506Z,5.32
2023-04-21T07:29:07.511Z,5.39
2023-04-21T07:30:08.150Z,5.81
2023-04-21T07:31:07.605Z,5.02
2023-04-21T07:32:07.540Z,4.92
2023-04-21T07:33:07.568Z,4.35
2023-04-21T07:34:07.535Z,5.13
2023-04-21T07:35:07.794Z,4.60
2023-04-21T07:36:08.321Z,5.12
2023-04-21T07:37:07.641Z,5.58
2023-04-21T07:38:07.697Z,7.46
2023-04-21T07:39:07.637Z,3.99
2023-04-21T07:40:08.085Z,2.38
2023-04-21T07:41:07.642Z,2.24
2023-04-21T07:42:07.698Z,1.87
2023-04-21T07:43:07.727Z,2.09
2023-04-21T07:44:07.752Z,4.90
2023-04-21T07:45:07.751Z,7.31
2023-04-21T07:46:07.820Z,9.59
2023-04-21T07:47:07.780Z,10.27
2023-04-21T07:48:07.863Z,10.65
2023-04-21T07:49:07.951Z,11.41
2023-04-21T07:50:08.115Z,11.89
2023-04-21T07:51:07.862Z,12.32
2023-04-21T07:52:07.832Z,12.56
2023-04-21T07:53:07.889Z,12.68
2023-04-21T07:54:07.885Z,12.54
2023-04-21T07:55:07.889Z,12.70
2023-04-21T07:56:07.925Z,12.48
2023-04-21T07:57:07.910Z,12.67
2023-04-21T07:58:07.888Z,12.02
2023-04-21T07:59:07.910Z,12.26
2023-04-21T08:00:08.132Z,11.86
2023-04-21T08:01:07.931Z,12.05
2023-04-21T08:02:07.934Z,11.67
2023-04-21T08:03:08.179Z,11.04
2023-04-21T08:04:07.959Z,8.82
2023-04-21T08:05:08.122Z,8.26
2023-04-21T08:06:08.257Z,6.27
2023-04-21T08:07:07.920Z,8.20
2023-04-21T08:08:07.870Z,8.56
2023-04-21T08:09:07.927Z,8.80
2023-04-21T08:10:07.890Z,9.15
2023-04-21T08:11:09.763Z,9.31
2023-04-21T08:12:07.849Z,9.82
2023-04-21T08:13:07.812Z,9.65
2023-04-21T08:14:07.791Z,9.25
2023-04-21T08:15:07.777Z,7.56
2023-04-21T08:16:07.750Z,8.31
2023-04-21T08:17:07.706Z,8.45
2023-04-21T08:18:07.746Z,8.65
2023-04-21T08:19:07.706Z,9.33
2023-04-21T08:20:07.622Z,8.95
2023-04-21T08:21:07.549Z,9.43
2023-04-21T08:22:07.531Z,9.51
2023-04-21T08:23:07.460Z,9.29
2023-04-21T08:24:07.449Z,9.15
2023-04-21T08:25:07.421Z,8.82
2023-04-21T08:26:07.432Z,8.55
2023-04-21T08:27:07.299Z,9.18
2023-04-21T08:28:07.319Z,7.55
2023-04-21T08:29:07.526Z,6.41
2023-04-21T08:30:07.163Z,6.01
2023-04-21T08:31:07.345Z,5.43
2023-04-21T08:32:07.454Z,6.74
2023-04-21T08:33:07.685Z,5.03
2023-04-21T08:34:07.076Z,4.54
2023-04-21T08:35:07.065Z,4.18
2023-04-21T08:36:15.196Z,5.72
2023-04-21T08:37:07.969Z,5.75
2023-04-21T08:38:06.951Z,5.98
2023-04-21T08:39:06.930Z,6.49
2023-04-21T08:40:07.184Z,7.49
2023-04-21T08:41:06.877Z,9.46
2023-04-21T08:42:06.768Z,6.40
2023-04-21T08:43:06.755Z,3.15
2023-04-21T08:44:06.730Z,2.27
2023-04-21T08:45:07.604Z,3.36
2023-04-21T08:46:06.712Z,2.79
2023-04-21T08:47:06.668Z,2.79
2023-04-21T08:48:06.683Z,3.80
2023-04-21T08:49:06.669Z,5.20
2023-04-21T08:50:06.727Z,5.97
2023-04-21T08:51:06.781Z,6.41
2023-04-21T08:52:06.782Z,4.03
2023-04-21T08:53:06.849Z,1.94
2023-04-21T08:54:06.801Z,1.32
2023-04-21T08:55:06.809Z,1.15
2023-04-21T08:57:15.385Z,1.76
2023-04-21T08:58:07.824Z,1.76
2023-04-21T08:59:06.790Z,1.82
2023-04-21T09:00:08.182Z,2.05
2023-04-21T09:01:07.199Z,2.24
2023-04-21T09:02:06.871Z,2.35
2023-04-21T09:04:06.780Z,2.87
2023-04-21T09:05:06.900Z,3.32
2023-04-21T09:06:07.023Z,3.21
2023-04-21T09:07:06.644Z,4.02
2023-04-21T09:08:06.599Z,3.97
2023-04-21T09:09:06.617Z,3.65
2023-04-21T09:10:06.604Z,3.26
2023-04-21T09:11:06.662Z,3.97
2023-04-21T09:12:06.663Z,5.13
2023-04-21T09:13:06.654Z,4.80
2023-04-21T09:14:06.677Z,4.75
2023-04-21T09:15:06.680Z,4.40
2023-04-21T09:16:10.921Z,4.67
2023-04-21T09:17:08.632Z,4.03
2023-04-21T09:18:06.730Z,3.71
2023-04-21T09:19:06.683Z,3.21
2023-04-21T09:20:06.596Z,2.58
2023-04-21T09:21:06.546Z,2.72
2023-04-21T09:22:06.548Z,3.08
2023-04-21T09:23:06.551Z,3.22
2023-04-21T09:24:06.619Z,3.48
2023-04-21T09:25:06.628Z,2.83
2023-04-21T09:26:06.624Z,3.06
2023-04-21T09:27:06.633Z,2.36
2023-04-21T09:28:06.630Z,1.98
2023-04-21T09:29:06.685Z,1.82
2023-04-21T09:30:06.678Z,1.54
2023-04-21T09:31:07.187Z,1.94
2023-04-21T09:32:07.539Z,2.39
2023-04-21T09:33:16.615Z,2.64
2023-04-21T09:34:07.702Z,2.67
2023-04-21T09:35:06.617Z,2.82
2023-04-21T09:36:06.580Z,2.94
2023-04-21T09:37:06.621Z,2.45
2023-04-21T09:38:06.561Z,2.86
2023-04-21T09:40:06.494Z,4.40
2023-04-21T09:41:06.663Z,4.28
2023-04-21T09:42:06.384Z,4.75
2023-04-21T09:43:06.372Z,5.69
2023-04-21T09:44:06.353Z,7.32
2023-04-21T09:46:06.683Z,5.90
2023-04-21T09:47:06.183Z,5.59
2023-04-21T09:48:06.484Z,2.10
2023-04-21T09:49:06.165Z,0.40
2023-04-21T09:50:07.009Z,0.34
2023-04-21T09:51:22.997Z,0.34
2023-04-21T09:52:18.773Z,0.34
2023-04-21T09:53:06.954Z,0.34
2023-04-21T09:54:13.010Z,0.34
2023-04-21T09:55:06.917Z,0.34
2023-04-21T09:56:05.921Z,0.34
2023-04-21T09:57:05.853Z,0.34
2023-04-21T09:58:05.789Z,0.34
2023-04-21T09:59:05.769Z,0.34
2023-04-21T10:00:05.721Z,0.34
2023-04-21T10:01:05.752Z,0.34
2023-04-21T10:02:05.871Z,0.34
2023-04-21T10:03:05.935Z,0.34
2023-04-21T10:04:05.774Z,0.34
2023-04-21T10:05:05.939Z,0.34
2023-04-21T10:06:05.712Z,0.34
2023-04-21T10:07:05.726Z,0.34
2023-04-21T10:08:05.632Z,0.34
2023-04-21T10:09:05.628Z,0.34
2023-04-21T10:10:05.691Z,0.34
2023-04-21T10:11:05.748Z,0.34
2023-04-21T10:12:08.448Z,0.34
2023-04-21T10:13:05.718Z,0.38
2023-04-21T10:14:05.615Z,0.56
2023-04-21T10:15:05.642Z,0.65
2023-04-21T10:16:05.626Z,0.46
2023-04-21T10:17:05.545Z,0.50
2023-04-21T10:18:05.511Z,0.42
2023-04-21T10:19:05.562Z,0.49
2023-04-21T10:20:05.470Z,0.63
2023-04-21T10:21:05.416Z,0.95
2023-04-21T10:22:05.720Z,0.66
2023-04-21T10:23:05.380Z,0.50
2023-04-21T10:24:05.328Z,0.56
2023-04-21T10:25:05.282Z,0.50
2023-04-21T10:26:05.267Z,0.46
2023-04-21T10:27:05.256Z,0.42
2023-04-21T10:28:05.204Z,0.40
2023-04-21T10:29:05.197Z,0.46
2023-04-21T10:30:05.121Z,0.55
2023-04-21T10:31:05.112Z,0.65
2023-04-21T10:32:06.297Z,1.21
2023-04-21T10:33:05.112Z,1.23
2023-04-21T10:34:04.976Z,1.54
2023-04-21T10:35:04.956Z,2.93
2023-04-21T10:36:04.919Z,9.05
2023-04-21T10:37:05.203Z,29.17
2023-04-21T10:38:06.441Z,31.45
2023-04-21T10:39:04.804Z,31.57
2023-04-21T10:40:04.725Z,28.75
2023-04-21T10:41:04.684Z,28.41
2023-04-21T10:42:05.141Z,30.29
2023-04-21T10:43:04.604Z,40.48
2023-04-21T10:44:04.593Z,49.42
2023-04-21T10:45:04.558Z,50.41
2023-04-21T10:46:04.530Z,57.89
2023-04-21T10:47:04.727Z,50.86
2023-04-21T10:48:04.442Z,57.89
2023-04-21T10:49:04.376Z,66.53
2023-04-21T10:50:04.329Z,74.23
2023-04-21T10:51:04.293Z,92.22
2023-04-21T10:52:04.266Z,91.49
2023-04-21T10:53:04.201Z,79.59
2023-04-21T10:54:04.145Z,90.24
2023-04-21T10:55:04.135Z,83.21
2023-04-21T10:56:04.081Z,88.39
2023-04-21T10:57:04.193Z,102.89
2023-04-21T10:58:03.986Z,119.92
2023-04-21T10:59:03.965Z,111.85
2023-04-21T11:00:03.934Z,102.84
2023-04-21T11:01:04.017Z,102.48
2023-04-21T11:02:03.926Z,89.40
2023-04-21T11:03:03.979Z,86.33
2023-04-21T11:04:03.873Z,92.29
2023-04-21T11:05:03.753Z,91.40
2023-04-21T11:06:03.720Z,96.80
2023-04-21T11:07:04.176Z,114.63
2023-04-21T11:08:03.633Z,115.25
2023-04-21T11:09:03.623Z,114.36
2023-04-21T11:10:03.574Z,96.22
2023-04-21T11:11:03.500Z,76.94
2023-04-21T11:12:03.487Z,78.59
2023-04-21T11:13:03.433Z,71.47
2023-04-21T11:14:03.436Z,50.27
2023-04-21T11:15:03.340Z,57.10
2023-04-21T11:16:03.366Z,63.20
2023-04-21T11:17:03.708Z,52.69
2023-04-21T11:18:03.277Z,48.21
2023-04-21T11:19:03.242Z,61.65
2023-04-21T11:20:03.204Z,47.03
2023-04-21T11:21:03.147Z,49.72
2023-04-21T11:22:03.051Z,65.13
2023-04-21T11:23:03.176Z,52.47
2023-04-21T11:24:03.038Z,46.88
2023-04-21T11:25:02.982Z,52.34
2023-04-21T11:26:02.939Z,57.00
2023-04-21T11:27:02.906Z,60.59
2023-04-21T11:28:02.836Z,51.32
2023-04-21T11:29:02.797Z,45.45
2023-04-21T11:30:02.752Z,50.91
2023-04-21T11:31:02.792Z,56.93
2023-04-21T11:32:02.671Z,52.02
2023-04-21T11:33:02.766Z,56.15
2023-04-21T11:34:02.655Z,60.90
2023-04-21T11:35:02.539Z,65.15
2023-04-21T11:36:02.506Z,60.68
2023-04-21T11:37:02.515Z,63.83
2023-04-21T11:38:02.401Z,57.53
2023-04-21T11:39:02.358Z,62.66
2023-04-21T11:40:02.345Z,49.66
2023-04-21T11:41:02.284Z,42.27
2023-04-21T11:42:02.207Z,47.37
2023-04-21T11:43:02.262Z,41.63
2023-04-21T11:44:02.120Z,39.62
2023-04-21T11:45:02.070Z,53.34
2023-04-21T11:46:02.036Z,61.43
2023-04-21T11:47:02.011Z,53.28
2023-04-21T11:48:02.008Z,56.23
2023-04-21T11:49:01.928Z,48.45
2023-04-21T11:50:01.910Z,48.08
2023-04-21T11:51:01.862Z,56.74
2023-04-21T11:52:01.802Z,57.61
2023-04-21T11:53:01.780Z,47.90
2023-04-21T11:54:01.757Z,43.20
2023-04-21T11:55:01.765Z,56.91
2023-04-21T11:56:01.667Z,57.56
2023-04-21T11:57:02.903Z,42.84
2023-04-21T11:58:01.572Z,32.41
2023-04-21T11:59:01.517Z,32.37
2023-04-21T12:00:01.576Z,33.24
2023-04-21T12:01:01.491Z,38.23
2023-04-21T12:02:01.458Z,32.36
2023-04-21T12:03:01.457Z,29.71
2023-04-21T12:04:01.544Z,26.05
2023-04-21T12:05:01.431Z,29.01
2023-04-21T12:06:01.266Z,27.13
2023-04-21T12:07:01.202Z,24.84
2023-04-21T12:08:01.150Z,27.06
2023-04-21T12:09:01.119Z,27.16
2023-04-21T12:10:01.241Z,25.95
2023-04-21T12:11:01.029Z,24.63
2023-04-21T12:12:00.997Z,27.68
2023-04-21T12:13:01.064Z,26.19
2023-04-21T12:14:00.894Z,23.23
2023-04-21T12:15:00.947Z,33.65
2023-04-21T12:16:00.944Z,30.77
2023-04-21T12:17:00.842Z,21.30
2023-04-21T12:18:00.916Z,20.60
2023-04-21T12:19:00.845Z,18.55
2023-04-21T12:20:00.838Z,13.90
2023-04-21T12:21:00.797Z,12.86
2023-04-21T12:22:00.772Z,11.54
2023-04-21T12:23:00.811Z,9.59
2023-04-21T12:24:00.785Z,8.82
2023-04-21T12:25:00.771Z,8.10
2023-04-21T12:26:00.707Z,8.01
2023-04-21T12:27:00.679Z,9.43
2023-04-21T12:28:00.682Z,12.61
2023-04-21T12:29:00.726Z,12.83
2023-04-21T12:30:00.626Z,13.46
2023-04-21T12:31:00.617Z,12.36
2023-04-21T12:32:00.752Z,16.35
2023-04-21T12:33:00.767Z,20.51
2023-04-21T12:34:00.666Z,13.43
2023-04-21T12:35:00.563Z,11.04
2023-04-21T12:36:00.543Z,10.82
2023-04-21T12:37:00.493Z,9.53
2023-04-21T12:38:00.534Z,10.88
2023-04-21T12:39:00.473Z,13.26
2023-04-21T12:40:00.475Z,15.61
2023-04-21T12:41:00.469Z,16.47
2023-04-21T12:42:00.455Z,15.02
2023-04-21T12:43:00.451Z,15.14
2023-04-21T12:44:00.450Z,16.89
2023-04-21T12:45:00.467Z,12.74
2023-04-21T12:46:00.555Z,15.33
2023-04-21T12:47:00.408Z,15.88
2023-04-21T12:48:00.465Z,11.99
2023-04-21T12:49:00.387Z,13.46
2023-04-21T12:50:00.397Z,15.71
2023-04-21T12:51:00.396Z,18.13
2023-04-21T12:52:00.359Z,17.20
2023-04-21T12:53:00.367Z,21.48
2023-04-21T12:54:00.353Z,13.69
2023-04-21T12:55:00.318Z,13.84
2023-04-21T12:56:04.470Z,16.41
2023-04-21T12:57:01.324Z,16.42
2023-04-21T12:58:00.238Z,16.43
2023-04-21T12:59:00.184Z,16.54
2023-04-21T13:00:00.193Z,18.67
2023-04-21T13:01:00.140Z,23.30
2023-04-21T13:02:00.115Z,13.72
2023-04-21T13:03:00.149Z,9.45
2023-04-21T13:04:00.147Z,7.17
2023-04-21T13:04:59.899Z,6.66
2023-04-21T13:05:59.886Z,7.75
2023-04-21T13:06:59.833Z,7.91
2023-04-21T13:07:59.792Z,6.68
2023-04-21T13:08:59.799Z,7.89
2023-04-21T13:09:59.735Z,8.93
2023-04-21T13:10:59.719Z,10.64
2023-04-21T13:11:59.613Z,11.94
2023-04-21T13:12:59.626Z,9.49
2023-04-21T13:13:59.530Z,11.41